Terminal Aerodrome Forecast
Issued by NWS

Home | Current Version | Previous Version | Text Only | Print | Product List | Glossary On
Versions: 1 2 3 4 5 6 7 8 9 10 11 12 13 14 15 16 17 18 19 20 21
000
FTUS43 KGRB 240525
TAFAUW
TAF
KAUW 240525Z 2406/2506 05010KT 5SM -SN OVC025
     FM240700 04011G16KT 1SM -SN OVC012
     FM241100 04014G25KT 1/2SM SN OVC006
     FM241900 02016G25KT 1SM -SN BLSN OVC010
     FM242300 36013G20KT 1 1/2SM -SN BLSN OVC012=

USA.gov is the U.S. government's official web portal to all federal, state and local government web resources and services.